Time;durP1;ratioP1;P1;durP2;ratioP2;P2;SDS_P1;SDS_P2;PMS_P1;PMS_P2;Temp;Humidity;BMP_temperature;BMP_pressure;BME280_temperature;BME280_humidity;BME280_pressure;Samples;Min_cycle;Max_cycle;Signal;HPM_P1;HPM_P2
2023/12/26 00:02:02;;;;;;;5.03;2.10;;;9.50;99.90;;;;;;5021368;28;20025;-57
2023/12/26 00:04:27;;;;;;;3.88;1.90;;;9.50;99.90;;;;;;5028650;28;20237;-57
2023/12/26 00:06:53;;;;;;;3.65;1.95;;;9.50;99.90;;;;;;5028734;28;20025;-57
2023/12/26 00:09:18;;;;;;;4.05;1.70;;;9.50;99.90;;;;;;5028966;28;20033;-57
2023/12/26 00:11:45;;;;;;;2.10;1.90;;;9.50;99.90;;;;;;5029444;28;20076;-57
2023/12/26 00:14:16;;;;;;;1.92;1.80;;;9.50;99.90;;;;;;5028791;28;20024;-57
2023/12/26 00:16:42;;;;;;;4.30;2.00;;;9.50;99.90;;;;;;5029077;28;20521;-57
2023/12/26 00:19:08;;;;;;;3.40;1.80;;;9.60;99.90;;;;;;5029006;28;20104;-57
2023/12/26 00:21:34;;;;;;;2.70;1.80;;;9.50;99.90;;;;;;5029422;28;20099;-56
2023/12/26 00:24:00;;;;;;;2.42;1.63;;;9.60;99.90;;;;;;5029145;28;20013;-56
2023/12/26 00:26:25;;;;;;;2.63;1.50;;;9.50;99.90;;;;;;5028530;28;20570;-57
2023/12/26 00:28:52;;;;;;;2.45;1.52;;;9.50;99.90;;;;;;5029756;28;20056;-57
2023/12/26 00:31:17;;;;;;;7.03;2.47;;;9.50;99.90;;;;;;5029027;28;20022;-57
2023/12/26 00:33:43;;;;;;;5.63;2.80;;;9.50;99.90;;;;;;5011057;28;20021;-58
2023/12/26 00:36:13;;;;;;;6.00;2.95;;;9.50;99.90;;;;;;5028758;28;20067;-57
2023/12/26 00:38:39;;;;;;;5.25;3.65;;;9.60;99.90;;;;;;5029861;28;20340;-57
2023/12/26 00:41:05;;;;;;;4.65;3.15;;;9.60;99.90;;;;;;5029028;28;20100;-57
2023/12/26 00:43:31;;;;;;;6.75;3.95;;;9.50;99.90;;;;;;5029197;28;20020;-57
2023/12/26 00:45:56;;;;;;;6.47;4.10;;;9.60;99.90;;;;;;5029974;28;20025;-56
2023/12/26 00:48:22;;;;;;;4.45;3.10;;;9.60;99.90;;;;;;5027853;28;20021;-55
2023/12/26 00:50:48;;;;;;;5.70;3.60;;;9.60;99.90;;;;;;5030038;28;20112;-55
2023/12/26 00:53:13;;;;;;;7.70;3.30;;;9.60;99.90;;;;;;5029658;28;20033;-56
2023/12/26 00:55:39;;;;;;;6.78;2.80;;;9.70;99.90;;;;;;5029844;28;20033;-56
2023/12/26 00:58:05;;;;;;;4.47;2.53;;;9.70;99.90;;;;;;5013525;28;20032;-56
2023/12/26 01:00:30;;;;;;;3.85;2.22;;;9.80;99.90;;;;;;5033130;28;20022;-55
2023/12/26 01:02:56;;;;;;;3.63;2.00;;;9.80;99.90;;;;;;5031802;28;20030;-57
2023/12/26 01:05:22;;;;;;;3.22;1.77;;;9.90;99.90;;;;;;5032763;28;20029;-56
2023/12/26 01:07:47;;;;;;;2.50;1.23;;;9.90;99.90;;;;;;5033399;28;20026;-56
2023/12/26 01:10:13;;;;;;;1.38;0.93;;;9.90;99.90;;;;;;5030045;28;20025;-56
2023/12/26 01:12:39;;;;;;;1.30;1.20;;;9.90;99.90;;;;;;5030023;28;20037;-57
2023/12/26 01:15:05;;;;;;;1.20;1.00;;;10.00;99.90;;;;;;5029735;28;20021;-57
2023/12/26 01:17:30;;;;;;;2.08;1.02;;;10.00;99.90;;;;;;5029263;28;20029;-57
2023/12/26 01:19:57;;;;;;;1.35;1.25;;;10.00;99.90;;;;;;5032881;28;20374;-57
2023/12/26 01:22:22;;;;;;;1.35;1.00;;;10.10;99.90;;;;;;5032707;28;20546;-58
2023/12/26 01:24:51;;;;;;;0.93;0.85;;;10.10;99.90;;;;;;5033415;28;20112;-58
2023/12/26 01:27:17;;;;;;;1.48;0.90;;;10.10;99.90;;;;;;5029374;28;20028;-58
2023/12/26 01:29:42;;;;;;;0.73;0.60;;;10.10;99.90;;;;;;5029746;28;20100;-57
2023/12/26 01:32:08;;;;;;;0.60;0.50;;;10.20;99.90;;;;;;5029694;28;20021;-57
2023/12/26 01:34:34;;;;;;;0.50;0.50;;;10.20;99.90;;;;;;5031556;28;20106;-57
2023/12/26 01:36:59;;;;;;;2.42;0.63;;;10.20;99.90;;;;;;5032172;28;20017;-57
2023/12/26 01:39:26;;;;;;;1.85;0.60;;;10.20;99.90;;;;;;5033174;28;20082;-58
2023/12/26 01:41:52;;;;;;;2.35;0.80;;;10.20;99.90;;;;;;5034645;28;20583;-58
2023/12/26 01:44:17;;;;;;;0.80;0.60;;;10.30;99.90;;;;;;5033426;28;20136;-59
2023/12/26 01:46:43;;;;;;;0.75;0.50;;;10.20;99.90;;;;;;5034153;28;20092;-58
2023/12/26 01:49:10;;;;;;;4.25;0.75;;;10.20;99.90;;;;;;5033427;28;20021;-59
2023/12/26 01:51:36;;;;;;;5.88;0.70;;;10.10;99.90;;;;;;5031625;28;20100;-58
2023/12/26 01:54:02;;;;;;;1.35;0.70;;;10.00;99.90;;;;;;5014416;28;20202;-58
2023/12/26 01:56:29;;;;;;;1.52;0.68;;;9.90;99.90;;;;;;5032650;28;20509;-59
2023/12/26 01:58:55;;;;;;;2.00;1.02;;;9.80;99.90;;;;;;5034954;28;20147;-58
2023/12/26 02:01:21;;;;;;;0.70;0.50;;;9.80;99.90;;;;;;5033334;28;20520;-58
2023/12/26 02:03:47;;;;;;;2.60;0.57;;;9.70;99.90;;;;;;5033589;28;20154;-58
2023/12/26 02:06:14;;;;;;;2.47;0.50;;;9.60;99.90;;;;;;5033154;28;20057;-58
2023/12/26 02:08:41;;;;;;;1.23;0.60;;;9.70;99.90;;;;;;5033608;28;20037;-58
2023/12/26 02:11:06;;;;;;;1.48;0.50;;;9.60;99.90;;;;;;5033202;28;20381;-58
2023/12/26 02:13:34;;;;;;;1.73;0.55;;;9.60;99.90;;;;;;5033001;28;20021;-58
2023/12/26 02:16:15;;;;;;;0.90;0.40;;;9.60;99.90;;;;;;5034012;28;20032;-58
2023/12/26 02:18:41;;;;;;;;;;;9.60;99.90;;;;;;5018676;28;20021;-58
2023/12/26 02:21:06;;;;;;;0.75;0.40;;;9.50;99.90;;;;;;5033397;28;20421;-58
2023/12/26 02:23:34;;;;;;;0.50;0.30;;;9.50;99.90;;;;;;5033197;28;20026;-58
2023/12/26 02:26:02;;;;;;;0.80;0.30;;;9.50;99.90;;;;;;5016382;28;20025;-57
2023/12/26 02:28:29;;;;;;;1.02;0.20;;;9.40;99.90;;;;;;5032836;28;20022;-58
2023/12/26 02:30:56;;;;;;;0.35;0.28;;;9.40;99.90;;;;;;5034734;28;20025;-57
2023/12/26 02:33:22;;;;;;;0.65;0.20;;;9.40;99.90;;;;;;5033172;28;20029;-58
2023/12/26 02:35:48;;;;;;;1.77;0.40;;;9.40;99.90;;;;;;5035129;28;20533;-58
2023/12/26 02:38:14;;;;;;;0.30;0.30;;;9.40;99.90;;;;;;5032571;28;20494;-58
2023/12/26 02:40:39;;;;;;;1.05;0.55;;;9.40;99.90;;;;;;5033385;28;20025;-58
2023/12/26 02:43:05;;;;;;;0.28;0.22;;;9.30;99.90;;;;;;5033937;28;20032;-58
2023/12/26 02:45:31;;;;;;;0.65;0.20;;;9.30;99.90;;;;;;5033026;28;20406;-58
2023/12/26 02:47:56;;;;;;;0.50;0.40;;;9.30;99.90;;;;;;5016982;28;20505;-58
2023/12/26 02:50:22;;;;;;;0.20;0.20;;;9.30;99.90;;;;;;5033465;28;20036;-58
2023/12/26 02:52:48;;;;;;;1.30;0.30;;;9.20;99.90;;;;;;5034962;28;20036;-58
2023/12/26 02:55:14;;;;;;;0.82;0.63;;;9.20;99.90;;;;;;5033407;28;20100;-58
2023/12/26 02:57:39;;;;;;;0.30;0.20;;;9.20;99.90;;;;;;5014673;28;20387;-58
2023/12/26 03:00:06;;;;;;;1.65;0.20;;;9.20;99.90;;;;;;5015359;28;20033;-58
2023/12/26 03:02:33;;;;;;;0.90;0.50;;;9.20;99.90;;;;;;5032972;28;20032;-58
2023/12/26 03:04:59;;;;;;;0.32;0.32;;;9.20;99.90;;;;;;5034853;28;20078;-58
2023/12/26 03:07:25;;;;;;;1.40;0.47;;;9.20;99.90;;;;;;5032611;28;20128;-57
2023/12/26 03:09:52;;;;;;;0.68;0.35;;;9.20;99.90;;;;;;5035443;28;20041;-58
2023/12/26 03:12:18;;;;;;;1.38;0.38;;;9.30;99.90;;;;;;5033297;28;20039;-58
2023/12/26 03:14:43;;;;;;;0.60;0.43;;;9.20;99.90;;;;;;5034768;28;20026;-58
2023/12/26 03:17:09;;;;;;;0.20;0.20;;;9.20;99.90;;;;;;5033375;28;20034;-58
2023/12/26 03:19:35;;;;;;;0.40;0.40;;;9.20;99.90;;;;;;5033766;28;20037;-58
2023/12/26 03:22:00;;;;;;;0.65;0.50;;;9.20;99.90;;;;;;5034654;28;20482;-58
2023/12/26 03:24:27;;;;;;;0.38;0.38;;;9.20;99.90;;;;;;5032892;28;20037;-58
2023/12/26 03:26:52;;;;;;;0.43;0.40;;;9.20;99.90;;;;;;5034908;28;20063;-58
2023/12/26 03:29:18;;;;;;;0.70;0.50;;;9.20;99.90;;;;;;5033059;28;20457;-58
2023/12/26 03:31:45;;;;;;;1.15;0.50;;;9.30;99.90;;;;;;5034447;28;20072;-58
2023/12/26 03:34:11;;;;;;;1.40;0.60;;;9.20;99.90;;;;;;5033667;28;20016;-58
2023/12/26 03:36:45;;;;;;;0.57;0.45;;;9.20;99.90;;;;;;5033723;28;20017;-59
2023/12/26 03:39:11;;;;;;;0.57;0.30;;;9.20;99.90;;;;;;5033882;28;20031;-58
2023/12/26 03:41:37;;;;;;;0.35;0.30;;;9.20;99.90;;;;;;5033753;28;20560;-58
2023/12/26 03:44:03;;;;;;;1.45;0.40;;;9.20;99.90;;;;;;5017153;28;20363;-57
2023/12/26 03:46:28;;;;;;;1.60;1.20;;;9.10;99.90;;;;;;5033055;28;20129;-58
2023/12/26 03:48:54;;;;;;;2.17;0.90;;;9.20;99.90;;;;;;5032711;28;20033;-58
2023/12/26 03:51:19;;;;;;;0.43;0.40;;;9.20;99.90;;;;;;5033031;28;20032;-58
2023/12/26 03:53:45;;;;;;;0.93;0.55;;;9.10;99.90;;;;;;5035015;28;20395;-58
2023/12/26 03:56:11;;;;;;;1.00;0.47;;;9.10;99.90;;;;;;5033728;28;20493;-58
2023/12/26 03:58:36;;;;;;;0.50;0.50;;;9.10;99.90;;;;;;5033679;28;20029;-58
2023/12/26 04:01:02;;;;;;;1.48;0.57;;;9.20;99.90;;;;;;5035580;28;20096;-58
2023/12/26 04:03:28;;;;;;;0.70;0.60;;;9.10;99.90;;;;;;5033394;28;20033;-58
2023/12/26 04:05:54;;;;;;;0.98;0.57;;;9.20;99.90;;;;;;5036531;28;20021;-58
2023/12/26 04:08:19;;;;;;;0.75;0.65;;;9.20;99.90;;;;;;5031949;28;20030;-58
2023/12/26 04:10:45;;;;;;;0.57;0.57;;;9.20;99.90;;;;;;5035318;28;20083;-58
2023/12/26 04:13:11;;;;;;;0.70;0.60;;;9.20;99.90;;;;;;5034237;28;20029;-58
2023/12/26 04:15:36;;;;;;;0.68;0.68;;;9.20;99.90;;;;;;5033642;28;20033;-58
2023/12/26 04:18:02;;;;;;;0.70;0.70;;;9.30;99.90;;;;;;5035084;28;20397;-58
2023/12/26 04:20:28;;;;;;;2.28;0.77;;;9.20;99.90;;;;;;5033794;28;20021;-58
2023/12/26 04:22:54;;;;;;;1.63;0.90;;;9.30;99.90;;;;;;5036666;28;20025;-58
2023/12/26 04:25:22;;;;;;;1.10;1.00;;;9.30;99.90;;;;;;5028626;28;20487;-58
2023/12/26 04:27:47;;;;;;;1.75;1.17;;;9.30;99.90;;;;;;5035365;28;20033;-57
2023/12/26 04:30:13;;;;;;;1.33;1.20;;;9.40;99.90;;;;;;5016655;28;20029;-58
2023/12/26 04:32:39;;;;;;;2.50;1.20;;;9.40;99.90;;;;;;5016456;28;20036;-58
2023/12/26 04:35:05;;;;;;;3.17;1.25;;;9.40;99.90;;;;;;5037682;28;20032;-57
2023/12/26 04:37:30;;;;;;;5.28;1.10;;;9.40;99.90;;;;;;5019439;28;20025;-57
2023/12/26 04:39:56;;;;;;;2.65;1.38;;;9.50;99.90;;;;;;5031079;28;20022;-57
2023/12/26 04:42:22;;;;;;;2.25;1.10;;;9.60;99.90;;;;;;5030509;28;20544;-58
2023/12/26 04:44:48;;;;;;;3.03;0.90;;;9.30;99.90;;;;;;5015427;28;20057;-59
2023/12/26 04:47:13;;;;;;;1.15;0.80;;;9.00;99.90;;;;;;5029714;28;20151;-58
2023/12/26 04:49:39;;;;;;;0.80;0.70;;;8.80;99.90;;;;;;5030320;28;20059;-58
2023/12/26 04:52:05;;;;;;;1.35;0.60;;;8.80;99.90;;;;;;5029822;28;20032;-58
2023/12/26 04:54:31;;;;;;;0.57;0.50;;;8.70;99.90;;;;;;5030016;28;20089;-58
2023/12/26 04:56:56;;;;;;;0.90;0.63;;;8.70;99.90;;;;;;5029471;28;20502;-58
2023/12/26 04:59:22;;;;;;;1.50;0.60;;;8.80;99.90;;;;;;5030030;28;20024;-58
2023/12/26 05:01:47;;;;;;;2.65;0.60;;;8.80;99.90;;;;;;5032012;28;20033;-58
2023/12/26 05:04:13;;;;;;;1.35;0.70;;;8.70;99.90;;;;;;5038775;28;20375;-58
2023/12/26 05:06:39;;;;;;;1.55;0.60;;;8.70;99.90;;;;;;5037922;28;20013;-58
2023/12/26 05:09:04;;;;;;;2.30;0.63;;;8.70;99.90;;;;;;5040126;28;20036;-58
2023/12/26 05:11:30;;;;;;;3.35;1.75;;;8.70;99.90;;;;;;5020439;28;20029;-58
2023/12/26 05:13:56;;;;;;;2.78;1.65;;;8.60;99.90;;;;;;5034099;28;20026;-57
2023/12/26 05:16:21;;;;;;;0.85;0.60;;;8.70;99.90;;;;;;5030168;28;20391;-58
2023/12/26 05:18:47;;;;;;;2.05;0.70;;;8.60;99.90;;;;;;5031065;28;20507;-57
2023/12/26 05:21:20;;;;;;;2.63;0.70;;;8.60;99.90;;;;;;5030829;28;20037;-58
2023/12/26 05:23:46;;;;;;;1.23;0.80;;;8.60;99.90;;;;;;5036483;28;20068;-58
2023/12/26 05:26:12;;;;;;;1.90;0.60;;;8.60;99.90;;;;;;5032045;28;20049;-58
2023/12/26 05:28:38;;;;;;;1.83;0.88;;;8.60;99.90;;;;;;5038842;28;20541;-58
2023/12/26 05:31:04;;;;;;;1.55;0.63;;;8.60;99.90;;;;;;5041110;28;20025;-58
2023/12/26 05:33:30;;;;;;;1.63;0.57;;;8.60;99.90;;;;;;5038268;28;20128;-57
2023/12/26 05:35:55;;;;;;;1.63;1.02;;;8.60;99.90;;;;;;5041347;28;20474;-57
2023/12/26 05:38:21;;;;;;;2.53;0.90;;;8.60;99.90;;;;;;5038024;28;20707;-60
2023/12/26 05:40:47;;;;;;;4.80;1.02;;;8.60;99.90;;;;;;5040445;28;20490;-57
2023/12/26 05:43:13;;;;;;;1.80;0.90;;;8.60;99.90;;;;;;5037152;28;20025;-57
2023/12/26 05:45:38;;;;;;;4.53;1.17;;;8.50;99.90;;;;;;5038916;28;20040;-57
2023/12/26 05:48:06;;;;;;;2.85;1.35;;;8.60;99.90;;;;;;5040714;28;20021;-58
2023/12/26 05:50:32;;;;;;;7.88;1.40;;;8.60;99.90;;;;;;5020584;28;20454;-58
2023/12/26 05:52:57;;;;;;;2.25;1.40;;;8.50;99.90;;;;;;5015375;28;20032;-58
2023/12/26 05:55:23;;;;;;;2.67;1.52;;;8.50;99.90;;;;;;5038551;28;20017;-55
2023/12/26 05:57:49;;;;;;;7.60;1.80;;;8.50;99.90;;;;;;5040077;28;20021;-55
2023/12/26 06:00:15;;;;;;;4.97;2.22;;;8.50;99.90;;;;;;5039491;28;20017;-55
2023/12/26 06:02:40;;;;;;;8.02;2.33;;;8.40;99.90;;;;;;5039643;28;20501;-56
2023/12/26 06:05:07;;;;;;;12.18;2.85;;;8.40;99.90;;;;;;5040665;28;20025;-56
2023/12/26 06:07:33;;;;;;;8.60;1.88;;;8.40;99.90;;;;;;5037811;28;20076;-56
2023/12/26 06:09:59;;;;;;;4.95;2.33;;;8.40;99.90;;;;;;5041740;28;20056;-56
2023/12/26 06:12:25;;;;;;;6.57;2.60;;;8.40;99.90;;;;;;5039018;28;20017;-56
2023/12/26 06:14:51;;;;;;;9.35;2.53;;;8.30;99.90;;;;;;5040474;28;20014;-55
2023/12/26 06:17:19;;;;;;;10.25;2.92;;;8.30;99.90;;;;;;5039085;28;20170;-56
2023/12/26 06:19:45;;;;;;;13.30;3.38;;;8.30;99.90;;;;;;5039917;28;20014;-56
2023/12/26 06:22:10;;;;;;;9.30;3.13;;;8.30;99.90;;;;;;5030819;28;20047;-56
2023/12/26 06:24:36;;;;;;;12.82;3.47;;;8.30;99.90;;;;;;5029210;28;20155;-56
2023/12/26 06:27:02;;;;;;;15.70;3.30;;;8.30;99.90;;;;;;5028691;28;20040;-56
2023/12/26 06:29:27;;;;;;;12.32;3.78;;;8.30;99.90;;;;;;5029493;28;20021;-56
2023/12/26 06:31:53;;;;;;;11.60;3.88;;;8.30;99.90;;;;;;5029173;28;20142;-58
2023/12/26 06:34:19;;;;;;;16.52;3.33;;;8.30;99.90;;;;;;5027789;28;20029;-58
2023/12/26 06:36:44;;;;;;;13.20;3.25;;;8.30;99.90;;;;;;5028592;28;20048;-58
2023/12/26 06:39:12;;;;;;;9.23;2.92;;;8.30;99.90;;;;;;5028816;28;20470;-58
2023/12/26 06:41:37;;;;;;;14.63;3.33;;;8.30;99.90;;;;;;5033061;28;20044;-59
2023/12/26 06:44:03;;;;;;;15.45;3.63;;;8.30;99.90;;;;;;5033224;28;20497;-57
2023/12/26 06:46:29;;;;;;;13.73;2.78;;;8.20;99.90;;;;;;5037884;28;20029;-57
2023/12/26 06:48:54;;;;;;;11.48;3.55;;;8.20;99.90;;;;;;5041678;28;20026;-57
2023/12/26 06:51:20;;;;;;;19.77;4.18;;;8.20;99.90;;;;;;5032829;28;20040;-57
2023/12/26 06:53:47;;;;;;;10.45;3.13;;;8.10;99.90;;;;;;5037924;28;20025;-57
2023/12/26 06:56:12;;;;;;;18.15;3.85;;;8.10;99.90;;;;;;5028137;28;20458;-57
2023/12/26 06:58:38;;;;;;;14.85;3.20;;;8.10;99.90;;;;;;5029343;28;20045;-57
2023/12/26 07:01:09;;;;;;;11.45;3.40;;;8.10;99.90;;;;;;5041684;28;20413;-56
2023/12/26 07:03:34;;;;;;;10.13;5.05;;;8.20;99.90;;;;;;5034983;28;20076;-55
2023/12/26 07:06:00;;;;;;;13.52;3.85;;;8.20;99.90;;;;;;5037231;28;20028;-55
2023/12/26 07:08:25;;;;;;;10.73;3.20;;;8.10;99.90;;;;;;5038698;28;20449;-54
2023/12/26 07:10:51;;;;;;;16.02;3.35;;;8.20;99.90;;;;;;5040781;28;20473;-55
2023/12/26 07:13:17;;;;;;;16.77;3.42;;;8.10;99.90;;;;;;5040372;28;20040;-55
2023/12/26 07:15:43;;;;;;;10.75;3.00;;;8.10;99.90;;;;;;5039392;28;20493;-55
2023/12/26 07:18:09;;;;;;;10.10;2.60;;;8.10;99.90;;;;;;5029605;28;20482;-55
2023/12/26 07:20:35;;;;;;;11.85;2.00;;;8.00;99.90;;;;;;5028096;28;20045;-55
2023/12/26 07:23:00;;;;;;;9.00;2.08;;;7.90;99.90;;;;;;5028017;28;20026;-54
2023/12/26 07:25:27;;;;;;;17.27;2.28;;;7.80;99.90;;;;;;5027359;28;20038;-53
2023/12/26 07:27:52;;;;;;;5.07;1.60;;;7.60;99.90;;;;;;5027736;28;20059;-54
2023/12/26 07:30:18;;;;;;;8.20;1.75;;;7.60;99.90;;;;;;5010442;28;20100;-53
2023/12/26 07:32:44;;;;;;;9.43;2.58;;;7.60;99.90;;;;;;5027452;28;20021;-50
2023/12/26 07:35:09;;;;;;;10.65;4.68;;;7.60;99.90;;;;;;5027270;28;20479;-53
2023/12/26 07:37:35;;;;;;;7.95;1.90;;;7.60;99.90;;;;;;5027302;28;20025;-53
2023/12/26 07:40:02;;;;;;;16.50;2.15;;;7.60;99.90;;;;;;5009135;28;20033;-53
2023/12/26 07:42:28;;;;;;;5.35;1.65;;;7.60;99.90;;;;;;5028479;28;20083;-53
2023/12/26 07:44:53;;;;;;;11.40;2.40;;;7.60;99.90;;;;;;5035775;28;20033;-53
2023/12/26 07:47:19;;;;;;;6.47;1.88;;;7.50;99.90;;;;;;5027434;28;20025;-50
2023/12/26 07:49:45;;;;;;;16.55;2.22;;;7.50;99.90;;;;;;5027546;28;20109;-52
2023/12/26 07:52:10;;;;;;;10.13;1.75;;;7.40;99.90;;;;;;5027738;28;20021;-53
2023/12/26 07:54:36;;;;;;;19.42;2.67;;;7.30;99.90;;;;;;5027355;28;20056;-51
2023/12/26 07:57:02;;;;;;;8.75;2.35;;;7.20;99.90;;;;;;5027329;28;20017;-53
2023/12/26 07:59:27;;;;;;;14.68;3.00;;;7.10;99.90;;;;;;5027661;28;20029;-54
2023/12/26 08:01:53;;;;;;;16.38;2.25;;;7.10;99.90;;;;;;5027800;28;20569;-54
2023/12/26 08:04:18;;;;;;;13.15;2.20;;;7.10;99.90;;;;;;5027229;28;20069;-52
2023/12/26 08:06:44;;;;;;;23.55;2.83;;;7.00;99.90;;;;;;5008809;28;20120;-51
2023/12/26 08:09:10;;;;;;;17.70;3.47;;;7.00;99.90;;;;;;5030698;28;20017;-53
2023/12/26 08:11:36;;;;;;;13.85;3.25;;;6.90;99.90;;;;;;5013120;28;20053;-54
2023/12/26 08:14:01;;;;;;;19.30;3.63;;;6.90;99.90;;;;;;5031932;28;20020;-51
2023/12/26 08:16:27;;;;;;;21.83;3.63;;;6.90;99.90;;;;;;5037911;28;20520;-54
2023/12/26 08:18:54;;;;;;;37.78;3.83;;;6.80;99.90;;;;;;5046012;28;20025;-52
2023/12/26 08:21:19;;;;;;;26.60;4.18;;;6.70;99.90;;;;;;5036260;28;20025;-53
2023/12/26 08:23:46;;;;;;;13.52;3.60;;;6.70;99.90;;;;;;5031550;28;20491;-53
2023/12/26 08:26:11;;;;;;;13.90;3.22;;;6.80;99.90;;;;;;5031839;28;20437;-53
2023/12/26 08:28:37;;;;;;;22.33;4.00;;;6.70;99.90;;;;;;5037627;28;20021;-53
2023/12/26 08:31:03;;;;;;;28.45;3.33;;;6.70;99.90;;;;;;5046518;28;20524;-54
2023/12/26 08:33:29;;;;;;;19.05;3.00;;;6.80;99.90;;;;;;5044738;28;20541;-53
2023/12/26 08:35:55;;;;;;;15.27;2.85;;;6.80;99.90;;;;;;5045944;28;20378;-52
2023/12/26 08:38:21;;;;;;;15.52;3.33;;;6.80;99.90;;;;;;5044862;28;20025;-54
2023/12/26 08:40:48;;;;;;;17.85;3.28;;;6.90;99.90;;;;;;5045158;28;20455;-53
2023/12/26 08:43:14;;;;;;;18.13;2.80;;;6.90;99.90;;;;;;5028837;28;20017;-53
2023/12/26 08:45:39;;;;;;;21.52;3.03;;;6.90;99.90;;;;;;5023389;28;20032;-54
2023/12/26 08:48:05;;;;;;;17.20;3.40;;;7.00;99.90;;;;;;5045945;28;20472;-53
2023/12/26 08:50:32;;;;;;;10.00;2.75;;;7.00;99.90;;;;;;5044228;28;20078;-51
2023/12/26 08:52:57;;;;;;;9.77;2.47;;;7.00;99.90;;;;;;5017227;28;20044;-54
2023/12/26 08:55:23;;;;;;;13.02;2.67;;;7.00;99.90;;;;;;5045100;28;20029;-52
2023/12/26 08:57:49;;;;;;;16.13;3.10;;;7.10;99.90;;;;;;5045144;28;20100;-54
2023/12/26 09:00:15;;;;;;;14.52;2.70;;;7.10;99.90;;;;;;5036473;28;20026;-54
2023/12/26 09:02:42;;;;;;;17.98;2.97;;;7.10;99.90;;;;;;5036538;28;20273;-53
2023/12/26 09:05:10;;;;;;;14.75;3.78;;;7.20;99.90;;;;;;5046223;28;20494;-53
2023/12/26 09:07:36;;;;;;;22.20;2.70;;;7.20;99.90;;;;;;5042866;28;20037;-51
2023/12/26 09:10:02;;;;;;;16.38;3.00;;;7.30;99.90;;;;;;5017845;28;20166;-53
2023/12/26 09:12:28;;;;;;;14.10;3.53;;;7.40;99.90;;;;;;5030054;28;20025;-54
2023/12/26 09:14:54;;;;;;;19.02;3.33;;;7.40;99.90;;;;;;5031006;28;20555;-50
2023/12/26 09:17:19;;;;;;;16.05;2.58;;;7.40;99.90;;;;;;5030252;28;20053;-51
2023/12/26 09:19:45;;;;;;;18.85;2.70;;;7.40;99.90;;;;;;5038154;28;20032;-50
2023/12/26 09:22:11;;;;;;;20.45;3.40;;;7.40;99.90;;;;;;5040429;28;20104;-50
2023/12/26 09:24:36;;;;;;;16.13;3.00;;;7.40;99.90;;;;;;5042788;28;20586;-53
2023/12/26 09:27:02;;;;;;;14.15;3.08;;;7.40;99.90;;;;;;5045630;28;20050;-52
2023/12/26 09:29:28;;;;;;;16.27;3.17;;;7.40;99.90;;;;;;5035495;28;20025;-50
2023/12/26 09:31:54;;;;;;;22.52;3.10;;;7.40;99.90;;;;;;5045222;28;20378;-53
2023/12/26 09:34:20;;;;;;;19.33;3.92;;;7.40;99.90;;;;;;5046351;28;20131;-52
2023/12/26 09:36:45;;;;;;;14.23;3.08;;;7.40;99.90;;;;;;5044179;28;20021;-51
2023/12/26 09:39:11;;;;;;;17.73;4.03;;;7.30;99.90;;;;;;5046727;28;20013;-49
2023/12/26 09:41:37;;;;;;;20.23;3.47;;;7.30;99.90;;;;;;5044735;28;20691;-51
2023/12/26 09:44:02;;;;;;;15.48;2.75;;;7.30;99.90;;;;;;5046556;28;20017;-52
2023/12/26 09:46:30;;;;;;;15.30;3.20;;;7.30;99.90;;;;;;5044855;28;20359;-49
2023/12/26 09:48:55;;;;;;;15.05;3.50;;;7.30;99.90;;;;;;5043150;28;20053;-50
2023/12/26 09:51:22;;;;;;;9.80;3.00;;;7.40;99.90;;;;;;5042917;28;20067;-53
2023/12/26 09:53:59;;;;;;;22.50;3.05;;;7.60;99.90;;;;;;5045363;28;20075;-53
2023/12/26 09:56:27;;;;;;;15.75;2.45;;;7.70;99.90;;;;;;5045562;28;20027;-52
2023/12/26 09:58:54;;;;;;;9.23;2.53;;;8.10;99.90;;;;;;5046188;28;20025;-51
2023/12/26 10:01:21;;;;;;;14.00;3.05;;;8.40;99.90;;;;;;5046600;28;20021;-52
2023/12/26 10:03:47;;;;;;;8.70;2.10;;;8.60;99.90;;;;;;5045248;28;20025;-52
2023/12/26 10:06:14;;;;;;;8.80;2.10;;;8.80;99.90;;;;;;5046625;28;20021;-52
2023/12/26 10:08:42;;;;;;;8.55;2.15;;;8.90;99.90;;;;;;5044724;28;20025;-51
2023/12/26 10:11:11;;;;;;;7.00;1.88;;;9.00;99.90;;;;;;5046834;28;20024;-52
2023/12/26 10:13:43;;;;;;;9.55;2.40;;;9.00;99.90;;;;;;5045186;28;20382;-53
2023/12/26 10:16:09;;;;;;;10.48;2.15;;;9.00;99.90;;;;;;5046275;28;20029;-52
2023/12/26 10:18:34;;;;;;;8.15;2.30;;;9.00;99.90;;;;;;5044790;28;20383;-53
2023/12/26 10:21:00;;;;;;;5.57;2.38;;;9.00;99.90;;;;;;5046794;28;20063;-52
2023/12/26 10:23:25;;;;;;;9.88;2.05;;;9.00;99.90;;;;;;5046350;28;20060;-52
2023/12/26 10:25:51;;;;;;;9.73;1.65;;;9.00;99.90;;;;;;5046024;28;20469;-52
2023/12/26 10:28:17;;;;;;;8.15;2.42;;;9.00;99.90;;;;;;5046315;28;20360;-51
2023/12/26 10:30:42;;;;;;;5.05;1.83;;;8.90;99.90;;;;;;5044206;28;20553;-52
2023/12/26 10:33:08;;;;;;;9.40;2.20;;;8.90;99.90;;;;;;5046725;28;20157;-50
2023/12/26 10:35:34;;;;;;;11.50;1.88;;;8.80;99.90;;;;;;5039079;28;20487;-51
2023/12/26 10:37:59;;;;;;;6.95;2.85;;;8.80;99.90;;;;;;5027833;28;20018;-52
2023/12/26 10:40:26;;;;;;;7.32;2.15;;;8.80;99.90;;;;;;5029796;28;20454;-50
2023/12/26 10:42:52;;;;;;;8.85;1.67;;;8.80;99.90;;;;;;5028949;28;20030;-53
2023/12/26 10:45:19;;;;;;;10.35;2.30;;;8.80;99.90;;;;;;5034867;28;20079;-53
2023/12/26 10:47:48;;;;;;;9.60;1.88;;;8.80;99.90;;;;;;5026755;28;20024;-52
2023/12/26 10:50:17;;;;;;;9.27;2.08;;;8.90;99.90;;;;;;5046888;28;20023;-49
2023/12/26 10:53:05;;;;;;;9.82;2.15;;;8.90;99.90;;;;;;5044233;28;20078;-50
2023/12/26 10:55:32;;;;;;;8.25;2.25;;;8.90;99.90;;;;;;5042979;28;20049;-53
2023/12/26 10:58:23;;;;;;;7.75;2.15;;;8.90;99.90;;;;;;5032879;28;20021;-51
2023/12/26 11:00:53;;;;;;;7.47;1.90;;;9.00;99.90;;;;;;5044411;28;20433;-52
2023/12/26 13:52:20;;;;;;;13.15;2.60;;;9.30;99.90;;;;;;5032009;28;20550;-52
2023/12/26 13:55:23;;;;;;;11.05;2.28;;;9.30;99.90;;;;;;5031548;28;20083;-53
2023/12/26 13:58:26;;;;;;;10.85;2.60;;;9.40;99.90;;;;;;5030420;28;20363;-53
2023/12/26 14:01:29;;;;;;;12.43;3.13;;;9.30;99.90;;;;;;5031883;28;20028;-53
2023/12/26 14:04:32;;;;;;;10.20;2.20;;;9.20;99.90;;;;;;5031745;28;20025;-51
2023/12/26 14:07:36;;;;;;;7.30;1.92;;;9.20;99.90;;;;;;5029265;28;20112;-53
2023/12/26 14:10:40;;;;;;;8.40;2.90;;;9.10;99.90;;;;;;5030728;28;20029;-53
2023/12/26 14:13:43;;;;;;;13.05;2.42;;;9.00;99.90;;;;;;5029962;28;20026;-54
2023/12/26 14:16:46;;;;;;;11.48;2.67;;;8.90;99.90;;;;;;5029850;28;20522;-53
2023/12/26 14:19:49;;;;;;;22.50;6.18;;;8.90;99.90;;;;;;5025338;28;20304;-54
2023/12/26 14:22:52;;;;;;;11.32;3.58;;;8.80;99.90;;;;;;5031303;28;20505;-54
2023/12/26 14:25:55;;;;;;;9.00;2.05;;;8.80;99.90;;;;;;5025842;28;20120;-54
2023/12/26 14:28:58;;;;;;;6.70;1.58;;;8.80;99.90;;;;;;5025756;28;20033;-53
2023/12/26 14:32:02;;;;;;;7.60;1.90;;;8.80;99.90;;;;;;5030141;28;20025;-53
2023/12/26 14:35:05;;;;;;;16.77;2.50;;;8.80;99.90;;;;;;5030251;28;20051;-51
2023/12/26 14:38:08;;;;;;;7.38;1.90;;;8.70;99.90;;;;;;5027077;28;20498;-52
2023/12/26 14:41:12;;;;;;;10.77;2.15;;;8.70;99.90;;;;;;5030202;28;20034;-50
2023/12/26 14:44:15;;;;;;;9.57;2.17;;;8.70;99.90;;;;;;5021314;28;20014;-54
2023/12/26 14:47:18;;;;;;;11.00;2.45;;;8.60;99.90;;;;;;5029301;28;20025;-51
2023/12/26 14:50:21;;;;;;;9.18;2.42;;;8.60;99.90;;;;;;5031050;28;20032;-52
2023/12/26 14:53:24;;;;;;;9.20;2.00;;;8.50;99.90;;;;;;5032096;28;20018;-51
2023/12/26 14:56:27;;;;;;;8.25;1.92;;;8.50;99.90;;;;;;5030709;28;20028;-53
2023/12/26 14:59:30;;;;;;;12.80;2.90;;;8.60;99.90;;;;;;5031940;28;20443;-53
2023/12/26 15:02:01;;;;;;;9.40;2.38;;;8.50;99.90;;;;;;5031182;28;20029;-50
2023/12/26 15:04:28;;;;;;;11.00;2.85;;;8.50;99.90;;;;;;5031152;28;20021;-54
2023/12/26 15:06:58;;;;;;;14.68;2.42;;;8.50;99.90;;;;;;5030966;28;20111;-53
2023/12/26 15:09:24;;;;;;;16.10;2.80;;;8.40;99.90;;;;;;5031400;28;20501;-51
2023/12/26 15:11:50;;;;;;;19.85;3.60;;;8.40;99.90;;;;;;5031068;28;20035;-50
2023/12/26 15:14:16;;;;;;;7.60;1.98;;;8.40;99.90;;;;;;5013241;28;20402;-49
2023/12/26 15:16:42;;;;;;;16.55;3.33;;;8.40;99.90;;;;;;5030145;28;20061;-50
2023/12/26 15:19:08;;;;;;;10.35;2.47;;;8.40;99.90;;;;;;5031413;28;20406;-50
2023/12/26 15:21:42;;;;;;;12.65;2.58;;;8.40;99.90;;;;;;5029681;28;20021;-55
2023/12/26 15:24:12;;;;;;;17.48;2.70;;;8.40;99.90;;;;;;5031380;28;20017;-50
2023/12/26 15:26:38;;;;;;;14.98;2.63;;;8.40;99.90;;;;;;5030033;28;20025;-53
2023/12/26 15:29:04;;;;;;;6.25;1.80;;;8.50;99.90;;;;;;5029731;28;20495;-51
2023/12/26 15:31:30;;;;;;;11.95;2.35;;;8.50;99.90;;;;;;5029215;28;20033;-52
2023/12/26 15:33:56;;;;;;;14.43;2.40;;;8.50;99.90;;;;;;5030667;28;20029;-53
2023/12/26 15:36:26;;;;;;;12.45;2.95;;;8.50;99.90;;;;;;5029594;28;20036;-54
2023/12/26 15:38:52;;;;;;;10.63;2.30;;;8.40;99.90;;;;;;5029158;28;20057;-53
2023/12/26 15:41:19;;;;;;;14.68;2.13;;;8.40;99.90;;;;;;5027298;28;20534;-53
2023/12/26 15:43:45;;;;;;;11.75;2.30;;;8.40;99.90;;;;;;5027810;28;20376;-55
2023/12/26 15:46:18;;;;;;;14.85;2.42;;;8.40;99.90;;;;;;5012638;28;20040;-53
2023/12/26 15:48:45;;;;;;;7.80;1.90;;;8.40;99.90;;;;;;5027966;28;20470;-51
2023/12/26 15:51:13;;;;;;;5.72;2.25;;;8.50;99.90;;;;;;5025846;28;20029;-51